sensor_id;sensor_type;location;lat;lon;timestamp;P1;durP1;ratioP1;P2;durP2;ratioP2
25435;SDS011;13363;52.772;-3.890;2023-06-22T00:00:52;4.20;;;2.60;;
25435;SDS011;13363;52.772;-3.890;2023-06-22T00:03:19;3.17;;;2.93;;
25435;SDS011;13363;52.772;-3.890;2023-06-22T00:05:47;3.23;;;3.03;;
25435;SDS011;13363;52.772;-3.890;2023-06-22T00:08:13;3.30;;;3.10;;
25435;SDS011;13363;52.772;-3.890;2023-06-22T00:10:40;3.53;;;3.10;;
25435;SDS011;13363;52.772;-3.890;2023-06-22T00:13:06;2.87;;;2.77;;
25435;SDS011;13363;52.772;-3.890;2023-06-22T00:15:33;3.03;;;2.77;;
25435;SDS011;13363;52.772;-3.890;2023-06-22T00:17:59;2.90;;;2.80;;
25435;SDS011;13363;52.772;-3.890;2023-06-22T00:20:26;3.47;;;3.27;;
25435;SDS011;13363;52.772;-3.890;2023-06-22T00:22:58;4.97;;;2.80;;
25435;SDS011;13363;52.772;-3.890;2023-06-22T00:25:25;5.50;;;3.10;;
25435;SDS011;13363;52.772;-3.890;2023-06-22T00:27:51;3.00;;;2.80;;
25435;SDS011;13363;52.772;-3.890;2023-06-22T00:30:17;3.17;;;2.97;;
25435;SDS011;13363;52.772;-3.890;2023-06-22T00:32:44;3.03;;;2.83;;
25435;SDS011;13363;52.772;-3.890;2023-06-22T00:35:11;3.60;;;3.30;;
25435;SDS011;13363;52.772;-3.890;2023-06-22T00:37:38;3.17;;;2.97;;
25435;SDS011;13363;52.772;-3.890;2023-06-22T00:40:07;3.50;;;3.20;;
25435;SDS011;13363;52.772;-3.890;2023-06-22T00:42:36;3.63;;;2.83;;
25435;SDS011;13363;52.772;-3.890;2023-06-22T00:45:03;3.10;;;2.90;;
25435;SDS011;13363;52.772;-3.890;2023-06-22T00:47:29;3.20;;;3.10;;
25435;SDS011;13363;52.772;-3.890;2023-06-22T00:49:55;3.17;;;2.90;;
25435;SDS011;13363;52.772;-3.890;2023-06-22T00:52:21;3.07;;;2.97;;
25435;SDS011;13363;52.772;-3.890;2023-06-22T00:54:52;4.13;;;2.90;;
25435;SDS011;13363;52.772;-3.890;2023-06-22T00:57:18;2.70;;;2.53;;
25435;SDS011;13363;52.772;-3.890;2023-06-22T00:59:45;3.40;;;3.00;;
25435;SDS011;13363;52.772;-3.890;2023-06-22T01:02:12;3.40;;;3.20;;
25435;SDS011;13363;52.772;-3.890;2023-06-22T01:04:39;3.20;;;2.87;;
25435;SDS011;13363;52.772;-3.890;2023-06-22T01:07:39;3.40;;;3.10;;
25435;SDS011;13363;52.772;-3.890;2023-06-22T01:10:21;3.73;;;3.20;;
25435;SDS011;13363;52.772;-3.890;2023-06-22T01:13:01;3.30;;;3.10;;
25435;SDS011;13363;52.772;-3.890;2023-06-22T01:15:44;4.10;;;3.20;;
25435;SDS011;13363;52.772;-3.890;2023-06-22T01:18:14;3.63;;;2.83;;
25435;SDS011;13363;52.772;-3.890;2023-06-22T01:20:43;4.07;;;3.10;;
25435;SDS011;13363;52.772;-3.890;2023-06-22T01:23:12;2.90;;;2.70;;
25435;SDS011;13363;52.772;-3.890;2023-06-22T01:26:02;5.70;;;2.90;;
25435;SDS011;13363;52.772;-3.890;2023-06-22T01:28:53;3.00;;;2.80;;
25435;SDS011;13363;52.772;-3.890;2023-06-22T01:31:22;3.30;;;3.10;;
25435;SDS011;13363;52.772;-3.890;2023-06-22T01:33:51;3.00;;;2.80;;
25435;SDS011;13363;52.772;-3.890;2023-06-22T01:36:26;3.33;;;3.13;;
25435;SDS011;13363;52.772;-3.890;2023-06-22T01:38:53;2.57;;;2.47;;
25435;SDS011;13363;52.772;-3.890;2023-06-22T01:41:20;3.63;;;3.13;;
25435;SDS011;13363;52.772;-3.890;2023-06-22T01:43:47;2.73;;;2.63;;
25435;SDS011;13363;52.772;-3.890;2023-06-22T01:46:14;3.93;;;2.70;;
25435;SDS011;13363;52.772;-3.890;2023-06-22T01:48:41;2.90;;;2.80;;
25435;SDS011;13363;52.772;-3.890;2023-06-22T01:51:06;3.10;;;3.00;;
25435;SDS011;13363;52.772;-3.890;2023-06-22T01:53:33;3.30;;;3.10;;
25435;SDS011;13363;52.772;-3.890;2023-06-22T01:55:58;3.30;;;3.07;;
25435;SDS011;13363;52.772;-3.890;2023-06-22T01:58:25;3.27;;;3.00;;
25435;SDS011;13363;52.772;-3.890;2023-06-22T02:01:15;3.40;;;3.20;;
25435;SDS011;13363;52.772;-3.890;2023-06-22T02:03:48;2.90;;;2.73;;
25435;SDS011;13363;52.772;-3.890;2023-06-22T02:06:27;3.17;;;2.97;;
25435;SDS011;13363;52.772;-3.890;2023-06-22T02:09:01;2.73;;;2.63;;
25435;SDS011;13363;52.772;-3.890;2023-06-22T02:11:29;2.60;;;2.40;;
25435;SDS011;13363;52.772;-3.890;2023-06-22T02:13:57;4.43;;;2.77;;
25435;SDS011;13363;52.772;-3.890;2023-06-22T02:16:23;3.07;;;2.80;;
25435;SDS011;13363;52.772;-3.890;2023-06-22T02:18:50;3.50;;;3.27;;
25435;SDS011;13363;52.772;-3.890;2023-06-22T02:21:17;3.93;;;3.53;;
25435;SDS011;13363;52.772;-3.890;2023-06-22T02:23:43;3.27;;;2.97;;
25435;SDS011;13363;52.772;-3.890;2023-06-22T02:26:09;3.27;;;3.07;;
25435;SDS011;13363;52.772;-3.890;2023-06-22T02:28:35;4.27;;;2.83;;
25435;SDS011;13363;52.772;-3.890;2023-06-22T02:31:01;2.73;;;2.53;;
25435;SDS011;13363;52.772;-3.890;2023-06-22T02:33:27;3.53;;;3.27;;
25435;SDS011;13363;52.772;-3.890;2023-06-22T02:35:53;5.43;;;2.80;;
25435;SDS011;13363;52.772;-3.890;2023-06-22T02:38:19;2.93;;;2.73;;
25435;SDS011;13363;52.772;-3.890;2023-06-22T02:40:45;2.87;;;2.67;;
25435;SDS011;13363;52.772;-3.890;2023-06-22T02:43:11;3.57;;;3.27;;
25435;SDS011;13363;52.772;-3.890;2023-06-22T02:45:37;2.70;;;2.60;;
25435;SDS011;13363;52.772;-3.890;2023-06-22T02:48:03;3.40;;;3.20;;
25435;SDS011;13363;52.772;-3.890;2023-06-22T02:50:29;3.10;;;2.87;;
25435;SDS011;13363;52.772;-3.890;2023-06-22T02:52:55;3.30;;;3.10;;
25435;SDS011;13363;52.772;-3.890;2023-06-22T02:55:21;2.93;;;2.73;;
25435;SDS011;13363;52.772;-3.890;2023-06-22T02:57:48;2.90;;;2.60;;
25435;SDS011;13363;52.772;-3.890;2023-06-22T03:00:17;2.80;;;2.70;;
25435;SDS011;13363;52.772;-3.890;2023-06-22T03:02:47;3.83;;;3.13;;
25435;SDS011;13363;52.772;-3.890;2023-06-22T03:05:14;3.20;;;3.00;;
25435;SDS011;13363;52.772;-3.890;2023-06-22T03:07:43;3.07;;;2.87;;
25435;SDS011;13363;52.772;-3.890;2023-06-22T03:10:10;3.27;;;2.90;;
25435;SDS011;13363;52.772;-3.890;2023-06-22T03:12:37;2.70;;;2.40;;
25435;SDS011;13363;52.772;-3.890;2023-06-22T03:15:10;3.10;;;2.90;;
25435;SDS011;13363;52.772;-3.890;2023-06-22T03:17:37;3.30;;;3.10;;
25435;SDS011;13363;52.772;-3.890;2023-06-22T03:20:06;3.10;;;2.90;;
25435;SDS011;13363;52.772;-3.890;2023-06-22T03:22:34;3.10;;;3.00;;
25435;SDS011;13363;52.772;-3.890;2023-06-22T03:25:01;3.13;;;2.77;;
25435;SDS011;13363;52.772;-3.890;2023-06-22T03:27:27;3.20;;;3.00;;
25435;SDS011;13363;52.772;-3.890;2023-06-22T03:29:53;3.07;;;2.77;;
25435;SDS011;13363;52.772;-3.890;2023-06-22T03:32:18;3.10;;;2.77;;
25435;SDS011;13363;52.772;-3.890;2023-06-22T03:34:44;2.80;;;2.70;;
25435;SDS011;13363;52.772;-3.890;2023-06-22T03:37:12;3.90;;;2.70;;
25435;SDS011;13363;52.772;-3.890;2023-06-22T03:39:40;3.57;;;3.27;;
25435;SDS011;13363;52.772;-3.890;2023-06-22T03:42:09;3.13;;;3.00;;
25435;SDS011;13363;52.772;-3.890;2023-06-22T03:44:35;3.97;;;2.80;;
25435;SDS011;13363;52.772;-3.890;2023-06-22T03:47:02;3.43;;;3.23;;
25435;SDS011;13363;52.772;-3.890;2023-06-22T03:49:29;4.60;;;3.13;;
25435;SDS011;13363;52.772;-3.890;2023-06-22T03:51:55;5.13;;;3.47;;
25435;SDS011;13363;52.772;-3.890;2023-06-22T03:54:20;3.67;;;3.37;;
25435;SDS011;13363;52.772;-3.890;2023-06-22T03:56:46;3.37;;;3.07;;
25435;SDS011;13363;52.772;-3.890;2023-06-22T03:59:12;3.03;;;2.73;;
25435;SDS011;13363;52.772;-3.890;2023-06-22T04:01:38;3.10;;;2.60;;
25435;SDS011;13363;52.772;-3.890;2023-06-22T04:04:05;3.00;;;2.83;;
25435;SDS011;13363;52.772;-3.890;2023-06-22T04:06:31;3.00;;;2.63;;
25435;SDS011;13363;52.772;-3.890;2023-06-22T04:08:58;3.30;;;3.10;;
25435;SDS011;13363;52.772;-3.890;2023-06-22T04:11:26;2.87;;;2.67;;
25435;SDS011;13363;52.772;-3.890;2023-06-22T04:13:52;3.20;;;2.90;;
25435;SDS011;13363;52.772;-3.890;2023-06-22T04:16:18;2.50;;;2.40;;
25435;SDS011;13363;52.772;-3.890;2023-06-22T04:18:44;3.20;;;2.90;;
25435;SDS011;13363;52.772;-3.890;2023-06-22T04:21:10;3.10;;;2.90;;
25435;SDS011;13363;52.772;-3.890;2023-06-22T04:23:36;3.10;;;2.90;;
25435;SDS011;13363;52.772;-3.890;2023-06-22T04:26:02;2.93;;;2.73;;
25435;SDS011;13363;52.772;-3.890;2023-06-22T04:28:27;2.90;;;2.70;;
25435;SDS011;13363;52.772;-3.890;2023-06-22T04:30:53;2.80;;;2.70;;
25435;SDS011;13363;52.772;-3.890;2023-06-22T04:33:23;3.20;;;2.80;;
25435;SDS011;13363;52.772;-3.890;2023-06-22T04:35:49;2.93;;;2.83;;
25435;SDS011;13363;52.772;-3.890;2023-06-22T04:38:15;3.10;;;2.90;;
25435;SDS011;13363;52.772;-3.890;2023-06-22T04:40:42;3.43;;;2.97;;
25435;SDS011;13363;52.772;-3.890;2023-06-22T04:43:07;2.80;;;2.70;;
25435;SDS011;13363;52.772;-3.890;2023-06-22T04:45:35;4.07;;;2.77;;
25435;SDS011;13363;52.772;-3.890;2023-06-22T04:48:03;2.90;;;2.70;;
25435;SDS011;13363;52.772;-3.890;2023-06-22T04:50:29;3.67;;;3.37;;
25435;SDS011;13363;52.772;-3.890;2023-06-22T04:52:55;2.90;;;2.80;;
25435;SDS011;13363;52.772;-3.890;2023-06-22T04:55:21;3.10;;;2.77;;
25435;SDS011;13363;52.772;-3.890;2023-06-22T04:57:47;2.93;;;2.73;;
25435;SDS011;13363;52.772;-3.890;2023-06-22T05:00:17;3.10;;;2.60;;
25435;SDS011;13363;52.772;-3.890;2023-06-22T05:02:48;2.83;;;2.70;;
25435;SDS011;13363;52.772;-3.890;2023-06-22T05:05:14;3.60;;;2.73;;
25435;SDS011;13363;52.772;-3.890;2023-06-22T05:07:46;3.20;;;3.00;;
25435;SDS011;13363;52.772;-3.890;2023-06-22T05:10:16;2.77;;;2.67;;
25435;SDS011;13363;52.772;-3.890;2023-06-22T05:12:42;3.53;;;3.03;;
25435;SDS011;13363;52.772;-3.890;2023-06-22T05:15:08;5.03;;;3.20;;
25435;SDS011;13363;52.772;-3.890;2023-06-22T05:17:34;3.33;;;3.10;;
25435;SDS011;13363;52.772;-3.890;2023-06-22T05:20:01;2.77;;;2.57;;
25435;SDS011;13363;52.772;-3.890;2023-06-22T05:22:27;3.30;;;3.20;;
25435;SDS011;13363;52.772;-3.890;2023-06-22T05:24:53;3.10;;;2.90;;
25435;SDS011;13363;52.772;-3.890;2023-06-22T05:27:19;3.10;;;2.90;;
25435;SDS011;13363;52.772;-3.890;2023-06-22T05:29:45;3.33;;;3.13;;
25435;SDS011;13363;52.772;-3.890;2023-06-22T05:32:11;3.87;;;3.43;;
25435;SDS011;13363;52.772;-3.890;2023-06-22T05:34:36;3.10;;;2.80;;
25435;SDS011;13363;52.772;-3.890;2023-06-22T05:37:03;3.10;;;2.73;;
25435;SDS011;13363;52.772;-3.890;2023-06-22T05:39:29;3.37;;;3.10;;
25435;SDS011;13363;52.772;-3.890;2023-06-22T05:41:55;2.90;;;2.80;;
25435;SDS011;13363;52.772;-3.890;2023-06-22T05:44:21;3.10;;;2.90;;
25435;SDS011;13363;52.772;-3.890;2023-06-22T05:46:46;2.90;;;2.70;;
25435;SDS011;13363;52.772;-3.890;2023-06-22T05:49:13;2.73;;;2.53;;
25435;SDS011;13363;52.772;-3.890;2023-06-22T05:51:39;4.07;;;2.80;;
25435;SDS011;13363;52.772;-3.890;2023-06-22T05:54:06;2.97;;;2.77;;
25435;SDS011;13363;52.772;-3.890;2023-06-22T05:56:33;2.87;;;2.67;;
25435;SDS011;13363;52.772;-3.890;2023-06-22T05:58:59;3.03;;;2.90;;
25435;SDS011;13363;52.772;-3.890;2023-06-22T06:01:25;2.50;;;2.40;;
25435;SDS011;13363;52.772;-3.890;2023-06-22T06:03:51;2.63;;;2.53;;
25435;SDS011;13363;52.772;-3.890;2023-06-22T06:06:18;2.57;;;2.47;;
25435;SDS011;13363;52.772;-3.890;2023-06-22T06:08:46;2.97;;;2.43;;
25435;SDS011;13363;52.772;-3.890;2023-06-22T06:11:12;3.00;;;2.80;;
25435;SDS011;13363;52.772;-3.890;2023-06-22T06:13:38;2.80;;;2.70;;
25435;SDS011;13363;52.772;-3.890;2023-06-22T06:16:03;2.90;;;2.70;;
25435;SDS011;13363;52.772;-3.890;2023-06-22T06:18:29;2.67;;;2.47;;
25435;SDS011;13363;52.772;-3.890;2023-06-22T06:20:55;2.23;;;2.13;;
25435;SDS011;13363;52.772;-3.890;2023-06-22T06:23:21;3.23;;;2.53;;
25435;SDS011;13363;52.772;-3.890;2023-06-22T06:25:47;2.70;;;2.60;;
25435;SDS011;13363;52.772;-3.890;2023-06-22T06:28:13;2.10;;;2.00;;
25435;SDS011;13363;52.772;-3.890;2023-06-22T06:30:39;2.10;;;2.00;;
25435;SDS011;13363;52.772;-3.890;2023-06-22T06:33:06;2.17;;;1.88;;
25435;SDS011;13363;52.772;-3.890;2023-06-22T06:35:34;2.40;;;2.30;;
25435;SDS011;13363;52.772;-3.890;2023-06-22T06:38:00;2.35;;;2.25;;
25435;SDS011;13363;52.772;-3.890;2023-06-22T06:40:25;2.53;;;2.42;;
25435;SDS011;13363;52.772;-3.890;2023-06-22T06:42:51;2.30;;;2.20;;
25435;SDS011;13363;52.772;-3.890;2023-06-22T06:45:18;2.42;;;2.33;;
25435;SDS011;13363;52.772;-3.890;2023-06-22T06:47:48;2.20;;;2.10;;
25435;SDS011;13363;52.772;-3.890;2023-06-22T06:50:15;2.30;;;2.20;;
25435;SDS011;13363;52.772;-3.890;2023-06-22T06:52:41;2.58;;;2.38;;
25435;SDS011;13363;52.772;-3.890;2023-06-22T06:55:08;2.42;;;2.33;;
25435;SDS011;13363;52.772;-3.890;2023-06-22T06:57:39;3.10;;;2.80;;
25435;SDS011;13363;52.772;-3.890;2023-06-22T07:00:05;2.30;;;2.20;;
25435;SDS011;13363;52.772;-3.890;2023-06-22T07:02:37;2.45;;;2.35;;
25435;SDS011;13363;52.772;-3.890;2023-06-22T07:05:04;2.50;;;2.40;;
25435;SDS011;13363;52.772;-3.890;2023-06-22T07:07:30;2.40;;;2.30;;
25435;SDS011;13363;52.772;-3.890;2023-06-22T07:09:56;2.50;;;2.40;;
25435;SDS011;13363;52.772;-3.890;2023-06-22T07:12:22;2.72;;;2.55;;
25435;SDS011;13363;52.772;-3.890;2023-06-22T07:14:48;2.75;;;2.60;;
25435;SDS011;13363;52.772;-3.890;2023-06-22T07:17:15;2.90;;;2.70;;
25435;SDS011;13363;52.772;-3.890;2023-06-22T07:19:41;3.17;;;2.83;;
25435;SDS011;13363;52.772;-3.890;2023-06-22T07:22:07;3.05;;;2.85;;
25435;SDS011;13363;52.772;-3.890;2023-06-22T07:24:33;3.35;;;3.10;;
25435;SDS011;13363;52.772;-3.890;2023-06-22T07:26:59;3.40;;;3.10;;
25435;SDS011;13363;52.772;-3.890;2023-06-22T07:29:25;3.22;;;3.03;;
25435;SDS011;13363;52.772;-3.890;2023-06-22T07:31:52;2.65;;;2.55;;
25435;SDS011;13363;52.772;-3.890;2023-06-22T07:34:18;2.75;;;2.50;;
25435;SDS011;13363;52.772;-3.890;2023-06-22T07:36:44;2.55;;;2.45;;
25435;SDS011;13363;52.772;-3.890;2023-06-22T07:39:11;2.78;;;2.60;;
25435;SDS011;13363;52.772;-3.890;2023-06-22T07:41:38;2.72;;;2.38;;
25435;SDS011;13363;52.772;-3.890;2023-06-22T07:44:05;3.05;;;2.85;;
25435;SDS011;13363;52.772;-3.890;2023-06-22T07:46:32;2.58;;;2.47;;
25435;SDS011;13363;52.772;-3.890;2023-06-22T07:48:58;2.72;;;2.63;;
25435;SDS011;13363;52.772;-3.890;2023-06-22T07:51:24;2.53;;;2.38;;
25435;SDS011;13363;52.772;-3.890;2023-06-22T07:53:50;2.55;;;2.45;;
25435;SDS011;13363;52.772;-3.890;2023-06-22T07:56:16;2.40;;;2.28;;
25435;SDS011;13363;52.772;-3.890;2023-06-22T07:58:46;2.30;;;2.13;;
25435;SDS011;13363;52.772;-3.890;2023-06-22T08:01:13;2.72;;;2.53;;
25435;SDS011;13363;52.772;-3.890;2023-06-22T08:03:41;2.60;;;2.40;;
25435;SDS011;13363;52.772;-3.890;2023-06-22T08:06:07;2.40;;;2.30;;
25435;SDS011;13363;52.772;-3.890;2023-06-22T08:08:34;2.63;;;2.42;;
25435;SDS011;13363;52.772;-3.890;2023-06-22T08:11:01;2.42;;;2.33;;
25435;SDS011;13363;52.772;-3.890;2023-06-22T08:13:26;2.88;;;2.72;;
25435;SDS011;13363;52.772;-3.890;2023-06-22T08:15:52;2.42;;;2.22;;
25435;SDS011;13363;52.772;-3.890;2023-06-22T08:18:18;3.05;;;2.85;;
25435;SDS011;13363;52.772;-3.890;2023-06-22T08:20:44;2.83;;;2.63;;
25435;SDS011;13363;52.772;-3.890;2023-06-22T08:23:10;2.70;;;2.60;;
25435;SDS011;13363;52.772;-3.890;2023-06-22T08:25:36;2.58;;;2.47;;
25435;SDS011;13363;52.772;-3.890;2023-06-22T08:28:02;2.80;;;2.60;;
25435;SDS011;13363;52.772;-3.890;2023-06-22T08:30:29;2.78;;;2.67;;
25435;SDS011;13363;52.772;-3.890;2023-06-22T08:32:55;2.80;;;2.65;;
25435;SDS011;13363;52.772;-3.890;2023-06-22T08:35:24;3.50;;;2.63;;
25435;SDS011;13363;52.772;-3.890;2023-06-22T08:37:51;2.97;;;2.78;;
25435;SDS011;13363;52.772;-3.890;2023-06-22T08:40:22;3.05;;;2.85;;
25435;SDS011;13363;52.772;-3.890;2023-06-22T08:42:49;2.67;;;2.50;;
25435;SDS011;13363;52.772;-3.890;2023-06-22T08:45:15;2.60;;;2.50;;
25435;SDS011;13363;52.772;-3.890;2023-06-22T08:47:41;2.30;;;2.20;;
25435;SDS011;13363;52.772;-3.890;2023-06-22T08:50:08;2.63;;;2.53;;
25435;SDS011;13363;52.772;-3.890;2023-06-22T08:52:36;2.35;;;2.25;;
25435;SDS011;13363;52.772;-3.890;2023-06-22T08:55:09;2.42;;;2.22;;
25435;SDS011;13363;52.772;-3.890;2023-06-22T08:57:35;3.10;;;2.90;;
25435;SDS011;13363;52.772;-3.890;2023-06-22T09:00:05;2.47;;;2.30;;
25435;SDS011;13363;52.772;-3.890;2023-06-22T09:02:41;2.72;;;2.63;;
25435;SDS011;13363;52.772;-3.890;2023-06-22T09:05:07;3.72;;;3.42;;
25435;SDS011;13363;52.772;-3.890;2023-06-22T09:07:33;2.70;;;2.50;;
25435;SDS011;13363;52.772;-3.890;2023-06-22T09:09:59;2.72;;;2.53;;
25435;SDS011;13363;52.772;-3.890;2023-06-22T09:12:25;2.90;;;2.67;;
25435;SDS011;13363;52.772;-3.890;2023-06-22T09:14:52;2.70;;;2.55;;
25435;SDS011;13363;52.772;-3.890;2023-06-22T09:17:18;2.75;;;2.55;;
25435;SDS011;13363;52.772;-3.890;2023-06-22T09:19:44;3.03;;;2.63;;
25435;SDS011;13363;52.772;-3.890;2023-06-22T09:22:10;2.60;;;2.50;;
25435;SDS011;13363;52.772;-3.890;2023-06-22T09:24:36;2.42;;;2.30;;
25435;SDS011;13363;52.772;-3.890;2023-06-22T09:27:02;2.30;;;2.20;;
25435;SDS011;13363;52.772;-3.890;2023-06-22T09:29:28;2.95;;;2.75;;
25435;SDS011;13363;52.772;-3.890;2023-06-22T09:31:53;2.90;;;2.70;;
25435;SDS011;13363;52.772;-3.890;2023-06-22T09:34:22;2.40;;;2.30;;
25435;SDS011;13363;52.772;-3.890;2023-06-22T09:36:47;2.88;;;2.50;;
25435;SDS011;13363;52.772;-3.890;2023-06-22T09:39:13;2.70;;;2.50;;
25435;SDS011;13363;52.772;-3.890;2023-06-22T09:41:39;2.53;;;2.42;;
25435;SDS011;13363;52.772;-3.890;2023-06-22T09:44:05;2.88;;;2.55;;
25435;SDS011;13363;52.772;-3.890;2023-06-22T09:46:31;2.67;;;2.53;;
25435;SDS011;13363;52.772;-3.890;2023-06-22T09:48:56;6.60;;;2.80;;
25435;SDS011;13363;52.772;-3.890;2023-06-22T09:51:24;3.20;;;3.00;;
25435;SDS011;13363;52.772;-3.890;2023-06-22T09:53:52;2.35;;;2.25;;
25435;SDS011;13363;52.772;-3.890;2023-06-22T09:56:21;2.67;;;2.58;;
25435;SDS011;13363;52.772;-3.890;2023-06-22T09:58:49;3.17;;;2.97;;
25435;SDS011;13363;52.772;-3.890;2023-06-22T10:01:17;2.92;;;2.72;;
25435;SDS011;13363;52.772;-3.890;2023-06-22T10:03:43;3.50;;;2.80;;
25435;SDS011;13363;52.772;-3.890;2023-06-22T10:06:09;2.80;;;2.60;;
25435;SDS011;13363;52.772;-3.890;2023-06-22T10:08:35;2.72;;;2.53;;
25435;SDS011;13363;52.772;-3.890;2023-06-22T10:11:03;3.00;;;2.80;;
25435;SDS011;13363;52.772;-3.890;2023-06-22T10:13:29;2.80;;;2.70;;
25435;SDS011;13363;52.772;-3.890;2023-06-22T10:15:56;3.00;;;2.90;;
25435;SDS011;13363;52.772;-3.890;2023-06-22T10:18:27;3.05;;;2.85;;
25435;SDS011;13363;52.772;-3.890;2023-06-22T10:20:55;3.08;;;2.88;;
25435;SDS011;13363;52.772;-3.890;2023-06-22T10:23:21;3.25;;;3.05;;
25435;SDS011;13363;52.772;-3.890;2023-06-22T10:25:47;3.00;;;2.80;;
25435;SDS011;13363;52.772;-3.890;2023-06-22T10:28:13;3.38;;;3.00;;
25435;SDS011;13363;52.772;-3.890;2023-06-22T10:30:39;4.57;;;3.13;;
25435;SDS011;13363;52.772;-3.890;2023-06-22T10:33:11;2.80;;;2.50;;
25435;SDS011;13363;52.772;-3.890;2023-06-22T10:35:41;2.83;;;2.72;;
25435;SDS011;13363;52.772;-3.890;2023-06-22T10:38:14;3.53;;;3.33;;
25435;SDS011;13363;52.772;-3.890;2023-06-22T10:40:43;4.18;;;2.80;;
25435;SDS011;13363;52.772;-3.890;2023-06-22T10:43:12;3.15;;;2.90;;
25435;SDS011;13363;52.772;-3.890;2023-06-22T10:45:51;3.15;;;3.00;;
25435;SDS011;13363;52.772;-3.890;2023-06-22T10:48:21;2.90;;;2.60;;
25435;SDS011;13363;52.772;-3.890;2023-06-22T10:50:53;3.20;;;3.00;;
25435;SDS011;13363;52.772;-3.890;2023-06-22T10:53:30;3.15;;;2.95;;
25435;SDS011;13363;52.772;-3.890;2023-06-22T10:56:02;3.33;;;3.13;;
25435;SDS011;13363;52.772;-3.890;2023-06-22T10:58:30;3.40;;;3.10;;
25435;SDS011;13363;52.772;-3.890;2023-06-22T11:00:57;3.38;;;3.17;;
25435;SDS011;13363;52.772;-3.890;2023-06-22T11:03:32;3.53;;;3.22;;
25435;SDS011;13363;52.772;-3.890;2023-06-22T11:06:02;3.20;;;2.85;;
25435;SDS011;13363;52.772;-3.890;2023-06-22T11:08:33;3.20;;;3.00;;
25435;SDS011;13363;52.772;-3.890;2023-06-22T11:11:05;3.33;;;3.13;;
25435;SDS011;13363;52.772;-3.890;2023-06-22T11:13:37;2.80;;;2.70;;
25435;SDS011;13363;52.772;-3.890;2023-06-22T11:16:09;3.28;;;3.08;;
25435;SDS011;13363;52.772;-3.890;2023-06-22T11:18:39;3.20;;;3.10;;
25435;SDS011;13363;52.772;-3.890;2023-06-22T11:21:13;3.35;;;3.15;;
25435;SDS011;13363;52.772;-3.890;2023-06-22T11:23:47;3.60;;;3.38;;
25435;SDS011;13363;52.772;-3.890;2023-06-22T11:26:16;3.47;;;3.17;;
25435;SDS011;13363;52.772;-3.890;2023-06-22T11:28:48;3.78;;;3.47;;
25435;SDS011;13363;52.772;-3.890;2023-06-22T11:31:20;3.17;;;3.03;;
25435;SDS011;13363;52.772;-3.890;2023-06-22T11:33:49;3.15;;;2.95;;
25435;SDS011;13363;52.772;-3.890;2023-06-22T11:36:15;3.15;;;2.95;;
25435;SDS011;13363;52.772;-3.890;2023-06-22T11:38:41;3.53;;;3.33;;
25435;SDS011;13363;52.772;-3.890;2023-06-22T11:41:08;3.58;;;3.38;;
25435;SDS011;13363;52.772;-3.890;2023-06-22T11:43:34;3.17;;;3.03;;
25435;SDS011;13363;52.772;-3.890;2023-06-22T11:46:01;3.80;;;3.50;;
25435;SDS011;13363;52.772;-3.890;2023-06-22T11:48:28;4.57;;;4.18;;
25435;SDS011;13363;52.772;-3.890;2023-06-22T11:50:54;4.03;;;3.72;;
25435;SDS011;13363;52.772;-3.890;2023-06-22T11:53:24;4.15;;;3.95;;
25435;SDS011;13363;52.772;-3.890;2023-06-22T11:55:51;3.50;;;3.30;;
25435;SDS011;13363;52.772;-3.890;2023-06-22T11:58:17;3.95;;;3.65;;
25435;SDS011;13363;52.772;-3.890;2023-06-22T12:00:43;4.40;;;4.00;;
25435;SDS011;13363;52.772;-3.890;2023-06-22T12:03:10;4.35;;;4.05;;
25435;SDS011;13363;52.772;-3.890;2023-06-22T12:05:37;4.38;;;4.00;;
25435;SDS011;13363;52.772;-3.890;2023-06-22T12:08:03;4.13;;;3.70;;
25435;SDS011;13363;52.772;-3.890;2023-06-22T12:10:29;3.95;;;3.65;;
25435;SDS011;13363;52.772;-3.890;2023-06-22T12:12:55;3.83;;;3.55;;
25435;SDS011;13363;52.772;-3.890;2023-06-22T12:15:22;4.32;;;3.92;;
25435;SDS011;13363;52.772;-3.890;2023-06-22T12:17:49;3.88;;;3.60;;
25435;SDS011;13363;52.772;-3.890;2023-06-22T12:20:15;3.90;;;3.70;;
25435;SDS011;13363;52.772;-3.890;2023-06-22T12:22:41;3.97;;;3.67;;
25435;SDS011;13363;52.772;-3.890;2023-06-22T12:25:07;4.18;;;3.88;;
25435;SDS011;13363;52.772;-3.890;2023-06-22T12:27:34;3.92;;;3.65;;
25435;SDS011;13363;52.772;-3.890;2023-06-22T12:30:01;4.78;;;3.85;;
25435;SDS011;13363;52.772;-3.890;2023-06-22T12:32:28;3.53;;;3.33;;
25435;SDS011;13363;52.772;-3.890;2023-06-22T12:34:53;4.07;;;3.75;;
25435;SDS011;13363;52.772;-3.890;2023-06-22T12:37:20;4.05;;;3.70;;
25435;SDS011;13363;52.772;-3.890;2023-06-22T12:39:46;3.58;;;3.33;;
25435;SDS011;13363;52.772;-3.890;2023-06-22T12:42:12;3.70;;;3.50;;
25435;SDS011;13363;52.772;-3.890;2023-06-22T12:44:38;3.88;;;3.60;;
25435;SDS011;13363;52.772;-3.890;2023-06-22T12:47:05;3.70;;;3.40;;
25435;SDS011;13363;52.772;-3.890;2023-06-22T12:49:31;3.90;;;3.60;;
25435;SDS011;13363;52.772;-3.890;2023-06-22T12:51:57;4.80;;;3.70;;
25435;SDS011;13363;52.772;-3.890;2023-06-22T12:54:22;2.95;;;2.80;;
25435;SDS011;13363;52.772;-3.890;2023-06-22T12:56:49;3.95;;;3.65;;
25435;SDS011;13363;52.772;-3.890;2023-06-22T12:59:16;3.90;;;3.65;;
25435;SDS011;13363;52.772;-3.890;2023-06-22T13:01:44;4.10;;;3.70;;
25435;SDS011;13363;52.772;-3.890;2023-06-22T13:04:11;3.80;;;3.55;;
25435;SDS011;13363;52.772;-3.890;2023-06-22T13:06:40;3.95;;;3.65;;
25435;SDS011;13363;52.772;-3.890;2023-06-22T13:09:06;4.07;;;3.75;;
25435;SDS011;13363;52.772;-3.890;2023-06-22T13:11:32;6.47;;;3.50;;
25435;SDS011;13363;52.772;-3.890;2023-06-22T13:13:58;4.05;;;3.85;;
25435;SDS011;13363;52.772;-3.890;2023-06-22T13:16:23;3.50;;;3.30;;
25435;SDS011;13363;52.772;-3.890;2023-06-22T13:18:49;3.92;;;3.67;;
25435;SDS011;13363;52.772;-3.890;2023-06-22T13:21:15;3.53;;;3.33;;
25435;SDS011;13363;52.772;-3.890;2023-06-22T13:23:41;4.53;;;3.40;;
25435;SDS011;13363;52.772;-3.890;2023-06-22T13:26:07;3.15;;;2.95;;
25435;SDS011;13363;52.772;-3.890;2023-06-22T13:28:33;4.60;;;4.20;;
25435;SDS011;13363;52.772;-3.890;2023-06-22T13:30:59;5.05;;;4.40;;
25435;SDS011;13363;52.772;-3.890;2023-06-22T13:33:24;3.88;;;3.58;;
25435;SDS011;13363;52.772;-3.890;2023-06-22T13:35:50;3.60;;;3.35;;
25435;SDS011;13363;52.772;-3.890;2023-06-22T13:38:16;4.28;;;3.97;;
25435;SDS011;13363;52.772;-3.890;2023-06-22T13:40:42;3.45;;;3.25;;
25435;SDS011;13363;52.772;-3.890;2023-06-22T13:43:08;3.95;;;3.75;;
25435;SDS011;13363;52.772;-3.890;2023-06-22T13:45:34;4.00;;;3.80;;
25435;SDS011;13363;52.772;-3.890;2023-06-22T13:48:00;4.30;;;4.00;;
25435;SDS011;13363;52.772;-3.890;2023-06-22T13:50:26;3.95;;;3.75;;
25435;SDS011;13363;52.772;-3.890;2023-06-22T13:52:54;4.05;;;3.60;;
25435;SDS011;13363;52.772;-3.890;2023-06-22T13:55:20;3.85;;;3.58;;
25435;SDS011;13363;52.772;-3.890;2023-06-22T13:57:46;4.03;;;3.72;;
25435;SDS011;13363;52.772;-3.890;2023-06-22T14:00:12;3.63;;;3.42;;
25435;SDS011;13363;52.772;-3.890;2023-06-22T14:02:38;3.67;;;3.47;;
25435;SDS011;13363;52.772;-3.890;2023-06-22T14:05:05;5.20;;;3.63;;
25435;SDS011;13363;52.772;-3.890;2023-06-22T14:07:31;3.20;;;2.97;;
25435;SDS011;13363;52.772;-3.890;2023-06-22T14:09:57;4.40;;;3.70;;
25435;SDS011;13363;52.772;-3.890;2023-06-22T14:12:24;3.08;;;2.88;;
25435;SDS011;13363;52.772;-3.890;2023-06-22T14:14:52;4.28;;;3.92;;
25435;SDS011;13363;52.772;-3.890;2023-06-22T14:17:18;3.70;;;3.50;;
25435;SDS011;13363;52.772;-3.890;2023-06-22T14:22:42;4.22;;;4.03;;
25435;SDS011;13363;52.772;-3.890;2023-06-22T14:25:08;4.25;;;3.85;;
25435;SDS011;13363;52.772;-3.890;2023-06-22T14:27:34;4.10;;;3.80;;
25435;SDS011;13363;52.772;-3.890;2023-06-22T14:30:00;3.33;;;3.13;;
25435;SDS011;13363;52.772;-3.890;2023-06-22T14:32:27;4.00;;;3.70;;
25435;SDS011;13363;52.772;-3.890;2023-06-22T14:34:55;4.38;;;4.18;;
25435;SDS011;13363;52.772;-3.890;2023-06-22T14:37:20;3.30;;;3.00;;